sensor_id;sensor_type;location;lat;lon;timestamp;pressure;altitude;pressure_sealevel;temperature;humidity
20971;BME280;10644;48.834;10.088;2022-08-21T00:01:54;96796.81;;;21.23;62.27
20971;BME280;10644;48.834;10.088;2022-08-21T00:04:21;96791.00;;;21.29;62.15
20971;BME280;10644;48.834;10.088;2022-08-21T00:06:52;96797.56;;;21.33;61.85
20971;BME280;10644;48.834;10.088;2022-08-21T00:09:34;96787.47;;;21.20;62.03
20971;BME280;10644;48.834;10.088;2022-08-21T00:12:20;96788.91;;;21.15;61.92
20971;BME280;10644;48.834;10.088;2022-08-21T00:14:45;96789.28;;;20.37;64.25
20971;BME280;10644;48.834;10.088;2022-08-21T00:17:11;96786.13;;;20.34;64.47
20971;BME280;10644;48.834;10.088;2022-08-21T00:19:38;96775.16;;;20.02;65.05
20971;BME280;10644;48.834;10.088;2022-08-21T00:22:17;96775.31;;;20.10;65.09
20971;BME280;10644;48.834;10.088;2022-08-21T00:25:06;96772.69;;;20.38;64.33
20971;BME280;10644;48.834;10.088;2022-08-21T00:27:36;96775.66;;;20.53;63.81
20971;BME280;10644;48.834;10.088;2022-08-21T00:30:25;96777.81;;;20.67;63.20
20971;BME280;10644;48.834;10.088;2022-08-21T00:32:55;96772.72;;;20.75;62.75
20971;BME280;10644;48.834;10.088;2022-08-21T00:35:39;96775.59;;;20.81;62.55
20971;BME280;10644;48.834;10.088;2022-08-21T00:38:07;96775.03;;;20.78;62.31
20971;BME280;10644;48.834;10.088;2022-08-21T00:40:57;96767.38;;;20.76;62.61
20971;BME280;10644;48.834;10.088;2022-08-21T00:43:39;96767.06;;;20.79;62.36
20971;BME280;10644;48.834;10.088;2022-08-21T00:46:08;96753.69;;;20.65;62.34
20971;BME280;10644;48.834;10.088;2022-08-21T00:48:50;96766.84;;;20.73;62.38
20971;BME280;10644;48.834;10.088;2022-08-21T00:51:48;96761.63;;;20.73;62.52
20971;BME280;10644;48.834;10.088;2022-08-21T00:54:15;96754.75;;;20.72;62.06
20971;BME280;10644;48.834;10.088;2022-08-21T00:56:54;96772.81;;;20.83;62.26
20971;BME280;10644;48.834;10.088;2022-08-21T00:59:22;96766.94;;;20.35;62.66
20971;BME280;10644;48.834;10.088;2022-08-21T01:02:05;96766.13;;;19.87;63.52
20971;BME280;10644;48.834;10.088;2022-08-21T01:04:40;96773.09;;;19.77;64.27
20971;BME280;10644;48.834;10.088;2022-08-21T01:07:10;96748.91;;;19.67;64.53
20971;BME280;10644;48.834;10.088;2022-08-21T01:09:55;96770.00;;;19.83;64.36
20971;BME280;10644;48.834;10.088;2022-08-21T01:12:29;96765.03;;;19.89;64.21
20971;BME280;10644;48.834;10.088;2022-08-21T01:14:55;96759.28;;;20.05;63.83
20971;BME280;10644;48.834;10.088;2022-08-21T01:17:28;96756.81;;;20.22;63.35
20971;BME280;10644;48.834;10.088;2022-08-21T01:19:58;96762.16;;;20.40;62.84
20971;BME280;10644;48.834;10.088;2022-08-21T01:22:42;96750.78;;;20.22;62.05
20971;BME280;10644;48.834;10.088;2022-08-21T01:25:09;96749.31;;;19.91;63.60
20971;BME280;10644;48.834;10.088;2022-08-21T01:27:54;96766.13;;;20.06;63.38
20971;BME280;10644;48.834;10.088;2022-08-21T01:30:33;96755.75;;;20.06;63.00
20971;BME280;10644;48.834;10.088;2022-08-21T01:33:09;96741.78;;;20.07;62.91
20971;BME280;10644;48.834;10.088;2022-08-21T01:35:39;96756.00;;;20.12;62.83
20971;BME280;10644;48.834;10.088;2022-08-21T01:38:31;96758.63;;;19.84;63.27
20971;BME280;10644;48.834;10.088;2022-08-21T01:40:56;96757.63;;;19.56;64.01
20971;BME280;10644;48.834;10.088;2022-08-21T01:43:44;96754.66;;;19.61;63.85
20971;BME280;10644;48.834;10.088;2022-08-21T01:46:22;96748.88;;;19.48;64.40
20971;BME280;10644;48.834;10.088;2022-08-21T01:48:47;96749.41;;;19.51;64.34
20971;BME280;10644;48.834;10.088;2022-08-21T01:51:13;96756.00;;;19.65;63.81
20971;BME280;10644;48.834;10.088;2022-08-21T01:53:42;96755.75;;;19.77;63.65
20971;BME280;10644;48.834;10.088;2022-08-21T01:59:17;96763.16;;;19.91;62.80
20971;BME280;10644;48.834;10.088;2022-08-21T02:01:48;96759.56;;;19.92;62.83
20971;BME280;10644;48.834;10.088;2022-08-21T02:04:21;96749.44;;;19.80;62.77
20971;BME280;10644;48.834;10.088;2022-08-21T02:06:52;96749.19;;;19.83;62.74
20971;BME280;10644;48.834;10.088;2022-08-21T02:09:23;96749.31;;;19.81;62.77
20971;BME280;10644;48.834;10.088;2022-08-21T02:11:52;96735.78;;;19.78;63.05
20971;BME280;10644;48.834;10.088;2022-08-21T02:17:19;96744.50;;;19.96;62.10
20971;BME280;10644;48.834;10.088;2022-08-21T02:22:51;96729.44;;;19.99;61.34
20971;BME280;10644;48.834;10.088;2022-08-21T02:25:26;96731.09;;;20.00;61.63
20971;BME280;10644;48.834;10.088;2022-08-21T02:27:54;96733.03;;;19.89;61.14
20971;BME280;10644;48.834;10.088;2022-08-21T02:30:36;96724.00;;;19.55;62.32
20971;BME280;10644;48.834;10.088;2022-08-21T02:33:32;96733.81;;;19.51;62.99
20971;BME280;10644;48.834;10.088;2022-08-21T02:36:08;96733.84;;;19.61;62.70
20971;BME280;10644;48.834;10.088;2022-08-21T02:38:35;96736.88;;;19.66;62.27
20971;BME280;10644;48.834;10.088;2022-08-21T02:41:07;96730.97;;;19.73;62.24
20971;BME280;10644;48.834;10.088;2022-08-21T02:43:33;96733.16;;;19.78;61.89
20971;BME280;10644;48.834;10.088;2022-08-21T02:46:22;96733.28;;;19.86;61.79
20971;BME280;10644;48.834;10.088;2022-08-21T02:48:50;96727.25;;;19.76;61.34
20971;BME280;10644;48.834;10.088;2022-08-21T02:51:29;96733.16;;;19.78;61.58
20971;BME280;10644;48.834;10.088;2022-08-21T02:54:07;96733.84;;;19.80;61.62
20971;BME280;10644;48.834;10.088;2022-08-21T02:56:39;96729.06;;;19.66;61.55
20971;BME280;10644;48.834;10.088;2022-08-21T02:59:18;96737.13;;;19.44;61.99
20971;BME280;10644;48.834;10.088;2022-08-21T03:01:55;96733.28;;;19.29;62.57
20971;BME280;10644;48.834;10.088;2022-08-21T03:04:28;96724.72;;;19.08;62.62
20971;BME280;10644;48.834;10.088;2022-08-21T03:07:05;96730.53;;;19.21;62.45
20971;BME280;10644;48.834;10.088;2022-08-21T03:09:43;96725.06;;;19.24;62.55
20971;BME280;10644;48.834;10.088;2022-08-21T03:12:10;96728.56;;;19.13;62.56
20971;BME280;10644;48.834;10.088;2022-08-21T03:17:50;96719.84;;;18.75;63.47
20971;BME280;10644;48.834;10.088;2022-08-21T03:20:36;96731.41;;;19.01;63.22
20971;BME280;10644;48.834;10.088;2022-08-21T03:23:22;96733.59;;;19.15;63.01
20971;BME280;10644;48.834;10.088;2022-08-21T03:25:48;96723.63;;;19.20;62.67
20971;BME280;10644;48.834;10.088;2022-08-21T03:28:25;96734.91;;;19.30;62.10
20971;BME280;10644;48.834;10.088;2022-08-21T03:31:00;96723.56;;;19.40;62.01
20971;BME280;10644;48.834;10.088;2022-08-21T03:33:34;96728.91;;;19.39;61.78
20971;BME280;10644;48.834;10.088;2022-08-21T03:36:05;96730.25;;;19.43;61.79
20971;BME280;10644;48.834;10.088;2022-08-21T03:38:36;96730.56;;;19.49;61.63
20971;BME280;10644;48.834;10.088;2022-08-21T03:41:10;96723.03;;;19.46;61.78
20971;BME280;10644;48.834;10.088;2022-08-21T03:43:36;96734.41;;;19.55;60.77
20971;BME280;10644;48.834;10.088;2022-08-21T03:46:11;96742.03;;;19.56;61.04
20971;BME280;10644;48.834;10.088;2022-08-21T03:48:48;96726.44;;;19.47;61.03
20971;BME280;10644;48.834;10.088;2022-08-21T03:51:14;96731.38;;;19.50;60.46
20971;BME280;10644;48.834;10.088;2022-08-21T03:53:52;96736.16;;;19.45;60.22
20971;BME280;10644;48.834;10.088;2022-08-21T03:56:32;96738.75;;;19.35;60.41
20971;BME280;10644;48.834;10.088;2022-08-21T04:02:26;96739.31;;;19.39;60.49
20971;BME280;10644;48.834;10.088;2022-08-21T04:04:56;96752.00;;;19.42;60.26
20971;BME280;10644;48.834;10.088;2022-08-21T04:07:35;96744.94;;;19.44;60.54
20971;BME280;10644;48.834;10.088;2022-08-21T04:10:06;96750.78;;;19.46;60.30
20971;BME280;10644;48.834;10.088;2022-08-21T04:16:07;96747.53;;;19.44;60.08
20971;BME280;10644;48.834;10.088;2022-08-21T04:18:41;96757.75;;;19.36;60.03
20971;BME280;10644;48.834;10.088;2022-08-21T04:21:22;96752.66;;;19.25;60.35
20971;BME280;10644;48.834;10.088;2022-08-21T04:24:07;96759.53;;;19.35;60.26
20971;BME280;10644;48.834;10.088;2022-08-21T04:26:41;96764.75;;;19.35;60.15
20971;BME280;10644;48.834;10.088;2022-08-21T04:29:14;96761.56;;;19.32;60.25
20971;BME280;10644;48.834;10.088;2022-08-21T04:31:56;96759.78;;;19.23;59.93
20971;BME280;10644;48.834;10.088;2022-08-21T04:34:23;96766.28;;;19.17;60.10
20971;BME280;10644;48.834;10.088;2022-08-21T04:36:49;96773.72;;;19.22;60.11
20971;BME280;10644;48.834;10.088;2022-08-21T04:39:33;96771.94;;;19.32;60.24
20971;BME280;10644;48.834;10.088;2022-08-21T04:42:12;96779.75;;;19.32;60.12
20971;BME280;10644;48.834;10.088;2022-08-21T04:44:44;96780.72;;;19.31;59.88
20971;BME280;10644;48.834;10.088;2022-08-21T04:47:28;96769.56;;;19.10;60.18
20971;BME280;10644;48.834;10.088;2022-08-21T04:49:53;96782.97;;;19.15;59.78
20971;BME280;10644;48.834;10.088;2022-08-21T04:52:27;96781.63;;;19.20;59.96
20971;BME280;10644;48.834;10.088;2022-08-21T04:54:54;96784.69;;;19.25;59.61
20971;BME280;10644;48.834;10.088;2022-08-21T04:57:20;96783.19;;;19.32;59.69
20971;BME280;10644;48.834;10.088;2022-08-21T04:59:52;96787.16;;;19.27;59.39
20971;BME280;10644;48.834;10.088;2022-08-21T05:02:19;96783.03;;;19.24;59.33
20971;BME280;10644;48.834;10.088;2022-08-21T05:08:00;96795.63;;;19.29;59.66
20971;BME280;10644;48.834;10.088;2022-08-21T05:10:27;96798.53;;;19.35;59.90
20971;BME280;10644;48.834;10.088;2022-08-21T05:12:53;96794.84;;;19.38;59.93
20971;BME280;10644;48.834;10.088;2022-08-21T05:15:29;96800.44;;;19.43;59.91
20971;BME280;10644;48.834;10.088;2022-08-21T05:21:47;96800.84;;;19.48;59.82
20971;BME280;10644;48.834;10.088;2022-08-21T05:24:17;96791.53;;;19.45;59.93
20971;BME280;10644;48.834;10.088;2022-08-21T05:26:48;96798.97;;;19.50;60.01
20971;BME280;10644;48.834;10.088;2022-08-21T05:29:27;96802.09;;;19.44;60.11
20971;BME280;10644;48.834;10.088;2022-08-21T05:32:09;96800.16;;;19.46;60.28
20971;BME280;10644;48.834;10.088;2022-08-21T05:34:42;96799.22;;;19.47;60.48
20971;BME280;10644;48.834;10.088;2022-08-21T05:40:06;96811.25;;;19.48;60.65
20971;BME280;10644;48.834;10.088;2022-08-21T05:42:46;96787.19;;;19.46;60.58
20971;BME280;10644;48.834;10.088;2022-08-21T05:45:30;96806.88;;;19.58;60.57
20971;BME280;10644;48.834;10.088;2022-08-21T05:48:21;96799.66;;;19.61;60.66
20971;BME280;10644;48.834;10.088;2022-08-21T05:50:55;96795.94;;;19.64;60.57
20971;BME280;10644;48.834;10.088;2022-08-21T05:53:48;96806.53;;;19.72;60.69
20971;BME280;10644;48.834;10.088;2022-08-21T05:56:28;96805.38;;;19.65;60.86
20971;BME280;10644;48.834;10.088;2022-08-21T05:59:07;96794.31;;;19.63;60.96
20971;BME280;10644;48.834;10.088;2022-08-21T06:01:33;96796.50;;;19.48;61.31
20971;BME280;10644;48.834;10.088;2022-08-21T06:04:06;96801.44;;;19.61;61.71
20971;BME280;10644;48.834;10.088;2022-08-21T06:06:36;96801.84;;;19.66;61.54
20971;BME280;10644;48.834;10.088;2022-08-21T06:09:03;96798.56;;;19.73;61.17
20971;BME280;10644;48.834;10.088;2022-08-21T06:11:34;96798.72;;;19.81;60.77
20971;BME280;10644;48.834;10.088;2022-08-21T06:14:00;96807.47;;;19.90;60.88
20971;BME280;10644;48.834;10.088;2022-08-21T06:16:26;96799.81;;;19.98;60.89
20971;BME280;10644;48.834;10.088;2022-08-21T06:21:43;96793.09;;;20.05;60.87
20971;BME280;10644;48.834;10.088;2022-08-21T06:24:13;96802.81;;;20.22;60.48
20971;BME280;10644;48.834;10.088;2022-08-21T06:26:43;96793.94;;;20.24;60.05
20971;BME280;10644;48.834;10.088;2022-08-21T06:29:22;96805.72;;;20.28;60.31
20971;BME280;10644;48.834;10.088;2022-08-21T06:32:10;96800.25;;;20.31;60.08
20971;BME280;10644;48.834;10.088;2022-08-21T06:37:43;96800.63;;;20.27;60.05
20971;BME280;10644;48.834;10.088;2022-08-21T06:40:17;96806.94;;;20.34;59.99
20971;BME280;10644;48.834;10.088;2022-08-21T06:42:57;96800.34;;;20.39;59.98
20971;BME280;10644;48.834;10.088;2022-08-21T06:45:38;96809.09;;;20.48;59.85
20971;BME280;10644;48.834;10.088;2022-08-21T06:48:19;96807.88;;;20.52;60.05
20971;BME280;10644;48.834;10.088;2022-08-21T06:50:59;96791.28;;;20.53;59.93
20971;BME280;10644;48.834;10.088;2022-08-21T06:53:35;96806.59;;;20.65;59.89
20971;BME280;10644;48.834;10.088;2022-08-21T06:56:01;96803.16;;;20.65;59.91
20971;BME280;10644;48.834;10.088;2022-08-21T06:58:54;96804.38;;;20.80;59.67
20971;BME280;10644;48.834;10.088;2022-08-21T07:01:38;96803.00;;;20.76;59.69
20971;BME280;10644;48.834;10.088;2022-08-21T07:04:06;96814.09;;;20.87;59.55
20971;BME280;10644;48.834;10.088;2022-08-21T07:06:50;96805.47;;;20.77;59.64
20971;BME280;10644;48.834;10.088;2022-08-21T07:09:22;96809.16;;;20.84;59.42
20971;BME280;10644;48.834;10.088;2022-08-21T07:11:50;96795.72;;;20.89;59.27
20971;BME280;10644;48.834;10.088;2022-08-21T07:14:32;96801.84;;;20.97;59.09
20971;BME280;10644;48.834;10.088;2022-08-21T07:17:07;96796.50;;;20.99;59.32
20971;BME280;10644;48.834;10.088;2022-08-21T07:19:34;96801.28;;;21.03;58.87
20971;BME280;10644;48.834;10.088;2022-08-21T07:22:32;96804.84;;;21.02;59.21
20971;BME280;10644;48.834;10.088;2022-08-21T07:25:05;96801.06;;;20.97;58.89
20971;BME280;10644;48.834;10.088;2022-08-21T07:27:37;96784.19;;;21.01;58.90
20971;BME280;10644;48.834;10.088;2022-08-21T07:30:19;96792.16;;;21.17;59.06
20971;BME280;10644;48.834;10.088;2022-08-21T07:36:18;96801.28;;;21.30;59.39
20971;BME280;10644;48.834;10.088;2022-08-21T07:39:06;96789.03;;;21.40;59.25
20971;BME280;10644;48.834;10.088;2022-08-21T07:41:34;96797.19;;;21.55;58.94
20971;BME280;10644;48.834;10.088;2022-08-21T07:44:24;96794.66;;;21.63;59.07
20971;BME280;10644;48.834;10.088;2022-08-21T07:46:50;96771.75;;;21.57;58.83
20971;BME280;10644;48.834;10.088;2022-08-21T07:49:29;96782.16;;;21.66;57.63
20971;BME280;10644;48.834;10.088;2022-08-21T07:52:08;96790.56;;;21.60;56.73
20971;BME280;10644;48.834;10.088;2022-08-21T07:54:55;96788.91;;;21.69;56.79
20971;BME280;10644;48.834;10.088;2022-08-21T07:57:37;96788.69;;;21.80;56.86
20971;BME280;10644;48.834;10.088;2022-08-21T08:00:12;96770.25;;;21.81;56.20
20971;BME280;10644;48.834;10.088;2022-08-21T08:02:53;96772.56;;;21.84;56.33
20971;BME280;10644;48.834;10.088;2022-08-21T08:05:25;96766.75;;;21.90;55.77
20971;BME280;10644;48.834;10.088;2022-08-21T08:07:54;96771.59;;;22.03;55.76
20971;BME280;10644;48.834;10.088;2022-08-21T08:10:37;96769.78;;;22.21;54.83
20971;BME280;10644;48.834;10.088;2022-08-21T08:13:11;96760.69;;;22.25;54.91
20971;BME280;10644;48.834;10.088;2022-08-21T08:15:45;96760.88;;;22.31;54.38
20971;BME280;10644;48.834;10.088;2022-08-21T08:18:14;96762.72;;;22.39;54.42
20971;BME280;10644;48.834;10.088;2022-08-21T08:20:39;96762.44;;;22.42;53.30
20971;BME280;10644;48.834;10.088;2022-08-21T08:23:17;96757.94;;;22.52;54.11
20971;BME280;10644;48.834;10.088;2022-08-21T08:25:56;96757.06;;;22.69;53.50
20971;BME280;10644;48.834;10.088;2022-08-21T08:28:21;96754.50;;;22.77;52.78
20971;BME280;10644;48.834;10.088;2022-08-21T08:30:49;96748.69;;;22.91;52.48
20971;BME280;10644;48.834;10.088;2022-08-21T08:33:37;96750.44;;;23.16;52.70
20971;BME280;10644;48.834;10.088;2022-08-21T08:36:15;96747.66;;;23.17;52.06
20971;BME280;10644;48.834;10.088;2022-08-21T08:38:48;96746.78;;;23.34;52.45
20971;BME280;10644;48.834;10.088;2022-08-21T08:41:17;96749.59;;;23.65;51.80
20971;BME280;10644;48.834;10.088;2022-08-21T08:43:55;96743.22;;;23.51;51.18
20971;BME280;10644;48.834;10.088;2022-08-21T08:46:47;96748.31;;;23.69;51.80
20971;BME280;10644;48.834;10.088;2022-08-21T08:52:18;96749.28;;;23.68;51.08
20971;BME280;10644;48.834;10.088;2022-08-21T08:55:14;96751.94;;;23.84;51.42
20971;BME280;10644;48.834;10.088;2022-08-21T08:57:54;96740.50;;;23.93;50.13
20971;BME280;10644;48.834;10.088;2022-08-21T09:00:49;96739.19;;;24.29;50.95
20971;BME280;10644;48.834;10.088;2022-08-21T09:03:16;96743.94;;;24.41;49.99
20971;BME280;10644;48.834;10.088;2022-08-21T09:11:04;96743.75;;;24.51;50.17
20971;BME280;10644;48.834;10.088;2022-08-21T09:14:00;96734.59;;;24.39;49.94
20971;BME280;10644;48.834;10.088;2022-08-21T09:16:47;96726.38;;;24.66;49.66
20971;BME280;10644;48.834;10.088;2022-08-21T09:25:25;96731.66;;;25.04;49.64
20971;BME280;10644;48.834;10.088;2022-08-21T09:28:15;96721.53;;;25.40;47.85
20971;BME280;10644;48.834;10.088;2022-08-21T09:30:46;96715.91;;;25.43;48.24
20971;BME280;10644;48.834;10.088;2022-08-21T09:33:14;96715.13;;;25.65;48.00
20971;BME280;10644;48.834;10.088;2022-08-21T09:35:53;96716.81;;;25.58;47.88
20971;BME280;10644;48.834;10.088;2022-08-21T09:38:52;96720.19;;;25.66;47.70
20971;BME280;10644;48.834;10.088;2022-08-21T09:41:27;96721.19;;;25.88;47.16
20971;BME280;10644;48.834;10.088;2022-08-21T09:43:55;96718.28;;;26.05;46.39
20971;BME280;10644;48.834;10.088;2022-08-21T09:46:37;96707.19;;;25.50;47.36
20971;BME280;10644;48.834;10.088;2022-08-21T09:49:48;96714.94;;;25.89;46.61
20971;BME280;10644;48.834;10.088;2022-08-21T09:55:48;96694.09;;;26.10;44.58
20971;BME280;10644;48.834;10.088;2022-08-21T09:58:52;96694.09;;;26.47;45.85
20971;BME280;10644;48.834;10.088;2022-08-21T10:01:46;96689.53;;;26.41;43.62
20971;BME280;10644;48.834;10.088;2022-08-21T10:04:36;96700.59;;;26.51;45.08
20971;BME280;10644;48.834;10.088;2022-08-21T10:07:30;96696.03;;;26.82;43.98
20971;BME280;10644;48.834;10.088;2022-08-21T10:57:50;96671.72;;;29.03;38.41
20971;BME280;10644;48.834;10.088;2022-08-21T11:00:23;96655.19;;;29.41;36.12
20971;BME280;10644;48.834;10.088;2022-08-21T11:03:13;96666.16;;;29.25;35.48
20971;BME280;10644;48.834;10.088;2022-08-21T11:05:59;96665.34;;;29.31;35.64
20971;BME280;10644;48.834;10.088;2022-08-21T11:08:37;96659.28;;;29.37;35.40
20971;BME280;10644;48.834;10.088;2022-08-21T11:11:12;96671.66;;;29.37;34.41
20971;BME280;10644;48.834;10.088;2022-08-21T11:13:41;96660.00;;;29.18;34.80
20971;BME280;10644;48.834;10.088;2022-08-21T11:19:19;96655.09;;;29.82;33.60
20971;BME280;10644;48.834;10.088;2022-08-21T11:21:56;96655.91;;;29.89;34.43
20971;BME280;10644;48.834;10.088;2022-08-21T11:30:14;96628.69;;;30.21;34.02
20971;BME280;10644;48.834;10.088;2022-08-21T11:35:17;96640.66;;;30.36;32.71
20971;BME280;10644;48.834;10.088;2022-08-21T11:50:21;96614.84;;;30.32;32.91
20971;BME280;10644;48.834;10.088;2022-08-21T11:53:12;96612.50;;;30.68;33.81
20971;BME280;10644;48.834;10.088;2022-08-21T11:56:00;96613.00;;;30.96;30.95
20971;BME280;10644;48.834;10.088;2022-08-21T11:58:41;96615.34;;;30.79;32.66
20971;BME280;10644;48.834;10.088;2022-08-21T12:01:12;96623.84;;;30.88;31.71
20971;BME280;10644;48.834;10.088;2022-08-21T12:03:53;96607.59;;;30.84;32.58
20971;BME280;10644;48.834;10.088;2022-08-21T12:06:32;96620.28;;;31.20;31.56
20971;BME280;10644;48.834;10.088;2022-08-21T12:09:33;96613.09;;;31.27;33.31
20971;BME280;10644;48.834;10.088;2022-08-21T12:14:44;96601.47;;;30.84;32.86
20971;BME280;10644;48.834;10.088;2022-08-21T12:17:24;96617.44;;;30.51;32.49
20971;BME280;10644;48.834;10.088;2022-08-21T12:20:22;96611.78;;;30.22;33.17
20971;BME280;10644;48.834;10.088;2022-08-21T12:26:35;96608.53;;;30.07;33.64
20971;BME280;10644;48.834;10.088;2022-08-21T12:29:12;96606.09;;;30.18;32.74
20971;BME280;10644;48.834;10.088;2022-08-21T12:31:52;96610.78;;;30.10;32.37
20971;BME280;10644;48.834;10.088;2022-08-21T12:34:20;96602.44;;;29.67;32.42
20971;BME280;10644;48.834;10.088;2022-08-21T12:36:54;96602.03;;;29.77;32.77
20971;BME280;10644;48.834;10.088;2022-08-21T12:39:29;96601.22;;;29.70;32.14
20971;BME280;10644;48.834;10.088;2022-08-21T12:45:22;96609.22;;;29.10;32.83
20971;BME280;10644;48.834;10.088;2022-08-21T12:47:58;96600.59;;;28.88;34.08
20971;BME280;10644;48.834;10.088;2022-08-21T12:50:55;96592.28;;;29.58;33.64
20971;BME280;10644;48.834;10.088;2022-08-21T12:53:49;96590.03;;;30.07;32.63
20971;BME280;10644;48.834;10.088;2022-08-21T12:56:31;96581.81;;;30.54;31.81
20971;BME280;10644;48.834;10.088;2022-08-21T12:59:04;96582.00;;;30.59;30.91
20971;BME280;10644;48.834;10.088;2022-08-21T13:01:49;96575.47;;;30.61;29.80
20971;BME280;10644;48.834;10.088;2022-08-21T13:04:35;96574.59;;;30.80;29.86
20971;BME280;10644;48.834;10.088;2022-08-21T13:07:08;96582.03;;;31.03;30.29
20971;BME280;10644;48.834;10.088;2022-08-21T13:12:46;96571.28;;;30.41;29.83
20971;BME280;10644;48.834;10.088;2022-08-21T13:15:33;96578.84;;;30.05;30.68
20971;BME280;10644;48.834;10.088;2022-08-21T13:18:04;96579.66;;;29.92;30.98
20971;BME280;10644;48.834;10.088;2022-08-21T13:20:38;96577.03;;;29.86;31.16
20971;BME280;10644;48.834;10.088;2022-08-21T13:23:28;96582.50;;;29.97;31.44
20971;BME280;10644;48.834;10.088;2022-08-21T13:25:55;96581.81;;;30.54;30.26
20971;BME280;10644;48.834;10.088;2022-08-21T13:28:35;96587.94;;;30.98;29.02
20971;BME280;10644;48.834;10.088;2022-08-21T13:31:07;96585.19;;;30.80;28.86
20971;BME280;10644;48.834;10.088;2022-08-21T13:33:37;96583.69;;;30.40;29.66
20971;BME280;10644;48.834;10.088;2022-08-21T13:36:23;96571.44;;;30.52;29.97
20971;BME280;10644;48.834;10.088;2022-08-21T13:38:50;96573.31;;;30.96;29.17
20971;BME280;10644;48.834;10.088;2022-08-21T13:41:34;96572.69;;;31.38;29.24
20971;BME280;10644;48.834;10.088;2022-08-21T13:44:14;96571.44;;;31.40;28.52
20971;BME280;10644;48.834;10.088;2022-08-21T13:49:45;96573.16;;;31.84;28.23
20971;BME280;10644;48.834;10.088;2022-08-21T13:52:25;96568.28;;;31.56;28.22
20971;BME280;10644;48.834;10.088;2022-08-21T13:55:12;96571.06;;;31.37;27.92
20971;BME280;10644;48.834;10.088;2022-08-21T13:57:44;96567.69;;;31.23;29.13
20971;BME280;10644;48.834;10.088;2022-08-21T14:03:35;96566.94;;;31.96;28.69
20971;BME280;10644;48.834;10.088;2022-08-21T14:06:15;96562.94;;;31.87;28.71
20971;BME280;10644;48.834;10.088;2022-08-21T14:08:50;96549.88;;;31.86;28.44
20971;BME280;10644;48.834;10.088;2022-08-21T14:11:25;96573.00;;;32.03;28.40
20971;BME280;10644;48.834;10.088;2022-08-21T14:17:14;96567.31;;;32.00;28.47
20971;BME280;10644;48.834;10.088;2022-08-21T14:19:53;96557.66;;;32.30;27.77
20971;BME280;10644;48.834;10.088;2022-08-21T14:22:44;96558.50;;;32.24;27.88
20971;BME280;10644;48.834;10.088;2022-08-21T14:27:57;96550.19;;;32.38;27.71
20971;BME280;10644;48.834;10.088;2022-08-21T14:30:53;96554.78;;;32.31;28.12
20971;BME280;10644;48.834;10.088;2022-08-21T14:33:53;96549.41;;;32.38;28.00
20971;BME280;10644;48.834;10.088;2022-08-21T14:36:39;96549.78;;;32.41;26.90
20971;BME280;10644;48.834;10.088;2022-08-21T14:39:05;96533.78;;;32.05;27.26
20971;BME280;10644;48.834;10.088;2022-08-21T14:41:31;96536.88;;;32.27;27.37
20971;BME280;10644;48.834;10.088;2022-08-21T14:44:02;96536.88;;;32.27;27.84
20971;BME280;10644;48.834;10.088;2022-08-21T14:46:29;96540.72;;;32.49;27.15
20971;BME280;10644;48.834;10.088;2022-08-21T14:48:55;96539.06;;;32.30;27.40
20971;BME280;10644;48.834;10.088;2022-08-21T14:51:21;96534.59;;;31.88;28.55
20971;BME280;10644;48.834;10.088;2022-08-21T14:53:47;96535.13;;;31.96;28.77
20971;BME280;10644;48.834;10.088;2022-08-21T14:56:23;96532.03;;;31.75;29.08
20971;BME280;10644;48.834;10.088;2022-08-21T14:59:06;96531.16;;;31.81;28.95
20971;BME280;10644;48.834;10.088;2022-08-21T15:01:46;96524.09;;;31.75;29.07
20971;BME280;10644;48.834;10.088;2022-08-21T15:04:13;96525.63;;;31.58;28.15
20971;BME280;10644;48.834;10.088;2022-08-21T15:06:38;96515.25;;;31.32;29.22
20971;BME280;10644;48.834;10.088;2022-08-21T15:09:04;96522.75;;;31.35;28.94
20971;BME280;10644;48.834;10.088;2022-08-21T15:11:32;96522.28;;;31.44;28.83
20971;BME280;10644;48.834;10.088;2022-08-21T15:14:01;96508.59;;;31.23;29.53
20971;BME280;10644;48.834;10.088;2022-08-21T15:16:29;96525.91;;;31.25;28.57
20971;BME280;10644;48.834;10.088;2022-08-21T15:18:56;96514.50;;;31.18;28.54
20971;BME280;10644;48.834;10.088;2022-08-21T15:21:37;96519.44;;;31.15;29.10
20971;BME280;10644;48.834;10.088;2022-08-21T15:24:06;96515.84;;;31.03;28.19
20971;BME280;10644;48.834;10.088;2022-08-21T15:26:33;96514.06;;;30.97;28.69
20971;BME280;10644;48.834;10.088;2022-08-21T15:29:08;96517.22;;;31.43;28.34
20971;BME280;10644;48.834;10.088;2022-08-21T15:34:55;96520.13;;;31.84;27.44
20971;BME280;10644;48.834;10.088;2022-08-21T15:37:22;96520.47;;;31.94;26.97
20971;BME280;10644;48.834;10.088;2022-08-21T15:40:11;96512.81;;;32.04;27.89
20971;BME280;10644;48.834;10.088;2022-08-21T15:42:56;96505.84;;;31.85;28.65
20971;BME280;10644;48.834;10.088;2022-08-21T15:45:24;96509.63;;;31.71;27.38
20971;BME280;10644;48.834;10.088;2022-08-21T15:47:55;96500.22;;;31.75;27.56
20971;BME280;10644;48.834;10.088;2022-08-21T15:50:23;96498.94;;;31.84;28.00
20971;BME280;10644;48.834;10.088;2022-08-21T15:52:50;96495.69;;;31.82;28.04
20971;BME280;10644;48.834;10.088;2022-08-21T15:55:15;96489.88;;;31.67;28.59
20971;BME280;10644;48.834;10.088;2022-08-21T15:57:59;96490.66;;;31.74;28.21
20971;BME280;10644;48.834;10.088;2022-08-21T16:00:25;96491.69;;;31.73;28.39
20971;BME280;10644;48.834;10.088;2022-08-21T16:03:11;96481.69;;;31.50;28.51
20971;BME280;10644;48.834;10.088;2022-08-21T16:05:48;96490.72;;;31.67;28.78
20971;BME280;10644;48.834;10.088;2022-08-21T16:08:23;96489.56;;;31.57;28.37
20971;BME280;10644;48.834;10.088;2022-08-21T16:10:50;96492.22;;;31.57;28.03
20971;BME280;10644;48.834;10.088;2022-08-21T16:13:29;96490.44;;;31.51;28.61